Terminal Aerodrome Forecast
Issued by NWS Tuscon, AZ

Home | Current Version | Previous Version | Text Only | Print | Product List | Glossary On
Versions: 1 2 3 4 5 6 7 8 9 10 11 12 13
000
FTUS45 KTWC 260536
TAFTUS
TAF
KTUS 260536Z 2606/2706 16006KT P6SM FEW150 BKN200
     FM261500 20010KT P6SM SCT100 BKN150
     FM262000 26014G24KT P6SM SCT100 BKN150
     FM270300 29006KT P6SM FEW100=

USA.gov is the U.S. government's official web portal to all federal, state and local government web resources and services.